createdAt,value
2023-04-26T00:01:58.810Z,17.86
2023-04-26T00:04:25.900Z,17.89
2023-04-26T00:06:52.832Z,17.92
2023-04-26T00:09:19.705Z,17.97
2023-04-26T00:11:46.804Z,17.93
2023-04-26T00:14:14.094Z,17.84
2023-04-26T00:16:40.950Z,17.80
2023-04-26T00:19:07.717Z,17.67
2023-04-26T00:21:34.492Z,17.74
2023-04-26T00:24:01.255Z,17.76
2023-04-26T00:26:28.002Z,17.70
2023-04-26T00:28:55.000Z,17.63
2023-04-26T00:31:21.892Z,17.66
2023-04-26T00:33:48.753Z,17.64
2023-04-26T00:36:19.283Z,17.74
2023-04-26T00:38:46.784Z,17.74
2023-04-26T00:41:14.249Z,17.78
2023-04-26T00:43:41.495Z,17.72
2023-04-26T00:46:09.798Z,17.73
2023-04-26T00:48:37.535Z,17.76
2023-04-26T00:51:05.843Z,17.75
2023-04-26T00:53:34.350Z,17.69
2023-04-26T00:56:02.244Z,17.66
2023-04-26T00:58:30.056Z,17.58
2023-04-26T01:00:56.967Z,17.63
2023-04-26T01:03:24.296Z,17.60
2023-04-26T01:05:51.286Z,17.61
2023-04-26T01:08:21.068Z,17.60
2023-04-26T01:10:49.105Z,17.48
2023-04-26T01:13:17.146Z,17.33
2023-04-26T01:15:46.302Z,17.41
2023-04-26T01:18:16.209Z,17.43
2023-04-26T01:20:43.563Z,17.50
2023-04-26T01:23:11.765Z,17.50
2023-04-26T01:25:39.287Z,17.49
2023-04-26T01:28:06.299Z,17.44
2023-04-26T01:30:33.150Z,17.46
2023-04-26T01:33:03.203Z,17.44
2023-04-26T01:35:30.075Z,17.40
2023-04-26T01:37:56.904Z,17.41
2023-04-26T01:40:23.658Z,17.38
2023-04-26T01:42:50.444Z,17.45
2023-04-26T01:45:17.583Z,17.47
2023-04-26T01:48:03.022Z,17.41
2023-04-26T01:50:32.146Z,17.43
2023-04-26T01:52:58.872Z,17.49
2023-04-26T01:55:25.673Z,17.48
2023-04-26T01:57:52.499Z,17.48
2023-04-26T02:00:20.384Z,17.43
2023-04-26T02:02:49.406Z,17.42
2023-04-26T02:05:16.283Z,17.42
2023-04-26T02:07:43.097Z,17.35
2023-04-26T02:10:10.043Z,17.37
2023-04-26T02:12:36.916Z,17.42
2023-04-26T02:15:03.915Z,17.44
2023-04-26T02:17:30.798Z,17.46
2023-04-26T02:19:58.554Z,17.43
2023-04-26T02:22:33.156Z,17.36
2023-04-26T02:24:59.949Z,17.36
2023-04-26T02:27:27.905Z,17.41
2023-04-26T02:29:54.804Z,17.47
2023-04-26T02:32:21.745Z,17.49
2023-04-26T02:34:48.604Z,17.50
2023-04-26T02:37:15.397Z,17.55
2023-04-26T02:39:42.153Z,17.57
2023-04-26T02:42:13.022Z,17.62
2023-04-26T02:44:40.113Z,17.65
2023-04-26T02:47:07.972Z,17.66
2023-04-26T02:49:34.817Z,17.67
2023-04-26T02:52:01.697Z,17.68
2023-04-26T02:54:29.879Z,17.60
2023-04-26T02:56:58.137Z,17.48
2023-04-26T02:59:25.112Z,17.48
2023-04-26T03:01:51.944Z,17.42
2023-04-26T03:04:18.914Z,17.39
2023-04-26T03:06:45.771Z,17.38
2023-04-26T03:09:12.703Z,17.45
2023-04-26T03:11:39.818Z,17.45
2023-04-26T03:14:06.618Z,17.37
2023-04-26T03:16:41.505Z,17.44
2023-04-26T03:19:08.551Z,17.47
2023-04-26T03:21:36.255Z,17.49
2023-04-26T03:24:04.336Z,17.49
2023-04-26T03:26:31.160Z,17.50
2023-04-26T03:28:57.991Z,17.49
2023-04-26T03:31:25.083Z,17.49
2023-04-26T03:33:52.106Z,17.37
2023-04-26T03:36:19.852Z,17.31
2023-04-26T03:38:46.678Z,17.32
2023-04-26T03:41:14.801Z,17.27
2023-04-26T03:43:41.591Z,17.27
2023-04-26T03:46:08.493Z,17.31
2023-04-26T03:48:35.300Z,17.31
2023-04-26T03:51:03.060Z,17.32
2023-04-26T03:53:29.817Z,17.37
2023-04-26T03:55:56.829Z,17.39
2023-04-26T03:58:26.047Z,17.30
2023-04-26T04:00:56.177Z,17.30
2023-04-26T04:03:23.407Z,17.19
2023-04-26T04:05:51.848Z,17.14
2023-04-26T04:08:18.556Z,17.12
2023-04-26T04:10:45.683Z,17.13
2023-04-26T04:13:12.518Z,17.07
2023-04-26T04:15:39.630Z,17.14
2023-04-26T04:18:06.457Z,17.15
2023-04-26T04:20:33.227Z,17.13
2023-04-26T04:23:02.178Z,17.15
2023-04-26T04:25:29.404Z,17.16
2023-04-26T04:27:59.852Z,17.22
2023-04-26T04:30:26.624Z,17.23
2023-04-26T04:32:54.279Z,17.30
2023-04-26T04:35:23.161Z,17.33
2023-04-26T04:37:50.256Z,17.33
2023-04-26T04:40:17.118Z,17.37
2023-04-26T04:42:46.738Z,17.41
2023-04-26T04:45:15.132Z,17.40
2023-04-26T04:47:42.630Z,17.43
2023-04-26T04:50:10.287Z,17.44
2023-04-26T04:52:37.746Z,17.45
2023-04-26T04:55:04.983Z,17.45
2023-04-26T04:57:33.519Z,17.47
2023-04-26T05:00:10.021Z,17.48
2023-04-26T05:02:42.396Z,17.49
2023-04-26T05:05:11.129Z,17.51
2023-04-26T05:07:38.031Z,17.52
2023-04-26T05:10:05.916Z,17.60
2023-04-26T05:12:33.703Z,17.57
2023-04-26T05:15:01.238Z,17.62
2023-04-26T05:17:28.071Z,17.70
2023-04-26T05:19:55.206Z,17.75
2023-04-26T05:22:22.388Z,17.79
2023-04-26T05:24:50.259Z,17.89
2023-04-26T05:27:17.709Z,17.91
2023-04-26T05:30:08.421Z,17.96
2023-04-26T05:32:47.384Z,17.90
2023-04-26T05:35:30.984Z,17.92
2023-04-26T05:37:57.746Z,17.97
2023-04-26T05:40:24.668Z,17.95
2023-04-26T05:42:51.463Z,17.96
2023-04-26T05:45:18.540Z,18.03
2023-04-26T05:47:47.563Z,17.92
2023-04-26T05:50:14.494Z,17.92
2023-04-26T05:52:41.487Z,18.02
2023-04-26T05:55:09.044Z,18.02
2023-04-26T05:57:36.277Z,18.00
2023-04-26T06:00:05.638Z,18.06
2023-04-26T06:02:40.868Z,18.15
2023-04-26T06:05:13.418Z,18.16
2023-04-26T06:07:41.320Z,18.17
2023-04-26T06:10:08.423Z,18.13
2023-04-26T06:12:35.397Z,18.18
2023-04-26T06:15:02.358Z,18.23
2023-04-26T06:17:31.040Z,18.36
2023-04-26T06:19:57.791Z,18.48
2023-04-26T06:22:24.497Z,18.58
2023-04-26T06:24:51.370Z,18.70
2023-04-26T06:27:18.399Z,18.78
2023-04-26T06:29:47.934Z,18.87
2023-04-26T06:32:15.975Z,18.96
2023-04-26T06:34:45.515Z,19.04
2023-04-26T06:37:12.442Z,19.12
2023-04-26T06:39:42.282Z,19.17
2023-04-26T06:42:09.286Z,19.29
2023-04-26T06:45:08.984Z,19.37
2023-04-26T06:47:36.311Z,19.45
2023-04-26T06:50:04.882Z,19.51
2023-04-26T06:52:31.668Z,19.60
2023-04-26T06:55:02.385Z,19.74
2023-04-26T06:57:29.180Z,19.89
2023-04-26T06:59:55.975Z,20.00
2023-04-26T07:02:24.558Z,20.07
2023-04-26T07:04:52.288Z,20.18
2023-04-26T07:07:19.194Z,20.32
2023-04-26T07:09:46.297Z,20.44
2023-04-26T07:12:13.932Z,20.49
2023-04-26T07:14:41.518Z,20.58
2023-04-26T07:17:08.325Z,20.61
2023-04-26T07:19:35.387Z,20.67
2023-04-26T07:22:02.534Z,20.75
2023-04-26T07:24:29.287Z,20.81
2023-04-26T07:26:56.881Z,20.87
2023-04-26T07:29:23.869Z,20.96
2023-04-26T07:31:50.664Z,21.04
2023-04-26T07:34:17.604Z,21.11
2023-04-26T07:36:44.356Z,21.06
2023-04-26T07:39:11.878Z,21.23
2023-04-26T07:41:38.696Z,21.33
2023-04-26T07:44:05.510Z,21.42
2023-04-26T07:46:34.378Z,21.52
2023-04-26T07:49:01.804Z,21.59
2023-04-26T07:51:28.704Z,21.69
2023-04-26T07:53:56.189Z,21.74
2023-04-26T07:56:26.383Z,21.80
2023-04-26T07:58:53.361Z,21.81
2023-04-26T08:01:20.153Z,21.83
2023-04-26T08:03:48.976Z,21.83
2023-04-26T08:06:16.813Z,21.82
2023-04-26T08:08:49.191Z,21.85
2023-04-26T08:11:16.768Z,21.96
2023-04-26T08:13:44.256Z,22.02
2023-04-26T08:16:11.223Z,22.05
2023-04-26T08:18:38.056Z,22.11
2023-04-26T08:21:04.973Z,22.13
2023-04-26T08:23:38.753Z,22.03
2023-04-26T08:26:06.661Z,21.83
2023-04-26T08:28:33.502Z,22.02
2023-04-26T08:31:00.391Z,21.90
2023-04-26T08:33:27.224Z,21.92
2023-04-26T08:35:53.926Z,21.87
2023-04-26T08:38:22.805Z,21.87
2023-04-26T08:40:51.432Z,21.98
2023-04-26T08:43:18.229Z,22.09
2023-04-26T08:45:49.358Z,22.14
2023-04-26T08:48:18.412Z,21.88
2023-04-26T08:50:49.085Z,21.97
2023-04-26T08:53:19.855Z,22.16
2023-04-26T08:55:50.213Z,22.14
2023-04-26T08:58:20.262Z,22.17
2023-04-26T09:01:05.683Z,22.34
2023-04-26T09:04:03.506Z,22.47
2023-04-26T09:06:31.310Z,22.54
2023-04-26T09:08:59.163Z,22.21
2023-04-26T09:11:26.170Z,22.24
2023-04-26T09:13:53.167Z,22.31
2023-04-26T09:16:20.136Z,22.37
2023-04-26T09:18:57.285Z,22.39
2023-04-26T09:21:24.854Z,22.35
2023-04-26T09:24:04.476Z,22.22
2023-04-26T09:26:31.280Z,22.36
2023-04-26T09:29:20.987Z,22.49
2023-04-26T09:31:50.149Z,22.47
2023-04-26T09:34:17.066Z,22.39
2023-04-26T09:36:57.640Z,22.47
2023-04-26T09:39:37.269Z,22.45
2023-04-26T09:42:05.239Z,22.43
2023-04-26T09:44:32.444Z,22.56
2023-04-26T09:47:05.952Z,22.58
2023-04-26T09:49:46.801Z,22.29
2023-04-26T09:52:13.829Z,22.24
2023-04-26T09:54:54.504Z,22.08
2023-04-26T09:57:23.683Z,21.90
2023-04-26T09:59:54.353Z,21.78
2023-04-26T10:02:27.259Z,21.56
2023-04-26T10:04:56.209Z,21.44
2023-04-26T10:07:24.812Z,21.62
2023-04-26T10:09:51.696Z,21.50
2023-04-26T10:12:20.218Z,21.49
2023-04-26T10:14:47.986Z,21.50
2023-04-26T10:17:14.849Z,21.41
2023-04-26T10:19:46.800Z,21.24
2023-04-26T10:22:23.809Z,21.58
2023-04-26T10:24:51.668Z,21.72
2023-04-26T10:27:46.928Z,21.87
2023-04-26T10:30:15.314Z,22.00
2023-04-26T10:32:57.687Z,22.16
2023-04-26T10:35:30.626Z,22.23
2023-04-26T10:38:00.358Z,22.21
2023-04-26T10:40:32.124Z,22.27
2023-04-26T10:43:11.534Z,22.28
2023-04-26T10:45:40.161Z,22.32
2023-04-26T10:48:32.130Z,22.39
2023-04-26T10:51:02.331Z,22.47
2023-04-26T10:53:33.649Z,22.56
2023-04-26T10:56:00.705Z,22.55
2023-04-26T10:58:34.473Z,22.75
2023-04-26T11:01:18.441Z,22.82
2023-04-26T11:04:14.444Z,22.91
2023-04-26T11:06:55.585Z,22.99
2023-04-26T11:09:48.234Z,23.09
2023-04-26T11:12:16.604Z,23.21
2023-04-26T11:14:45.605Z,23.18
2023-04-26T11:17:13.233Z,23.37
2023-04-26T11:19:41.931Z,23.39
2023-04-26T11:22:08.926Z,23.16
2023-04-26T11:24:39.220Z,23.22
2023-04-26T11:27:10.225Z,23.36
2023-04-26T11:29:37.618Z,23.38
2023-04-26T11:32:05.246Z,23.54
2023-04-26T11:34:35.899Z,23.29
2023-04-26T11:37:04.929Z,23.12
2023-04-26T11:39:32.833Z,22.82
2023-04-26T11:42:10.794Z,23.21
2023-04-26T11:44:38.430Z,23.21
2023-04-26T11:47:06.773Z,22.88
2023-04-26T11:49:36.402Z,22.74
2023-04-26T11:52:07.353Z,22.83
2023-04-26T11:54:37.872Z,22.72
2023-04-26T11:57:18.426Z,22.84
2023-04-26T11:59:46.891Z,22.99
2023-04-26T12:02:14.355Z,22.89
2023-04-26T12:04:41.705Z,22.99
2023-04-26T12:07:09.457Z,22.85
2023-04-26T12:09:42.289Z,22.99
2023-04-26T12:12:09.215Z,22.83
2023-04-26T12:14:40.089Z,22.82
2023-04-26T12:17:09.684Z,22.97
2023-04-26T12:19:38.274Z,23.08
2023-04-26T12:22:08.810Z,23.10
2023-04-26T12:24:37.405Z,23.15
2023-04-26T12:27:08.545Z,23.15
2023-04-26T12:29:35.729Z,23.17
2023-04-26T12:32:03.246Z,23.19
2023-04-26T12:34:31.011Z,23.06
2023-04-26T12:36:57.940Z,23.04
2023-04-26T12:39:24.702Z,23.01
2023-04-26T12:41:51.568Z,23.03
2023-04-26T12:44:20.379Z,22.92
2023-04-26T12:46:48.393Z,22.84
2023-04-26T12:49:15.298Z,22.91
2023-04-26T12:51:42.055Z,22.89
2023-04-26T12:54:09.317Z,22.70
2023-04-26T12:56:40.758Z,22.79
2023-04-26T12:59:07.640Z,22.66
2023-04-26T13:01:34.595Z,22.66
2023-04-26T13:04:06.027Z,22.39
2023-04-26T13:06:33.637Z,22.32
2023-04-26T13:09:00.586Z,22.26
2023-04-26T13:11:27.440Z,22.51
2023-04-26T13:13:54.809Z,22.69
2023-04-26T13:16:21.957Z,22.64
2023-04-26T13:18:48.744Z,22.79
2023-04-26T13:21:17.582Z,22.67
2023-04-26T13:23:46.278Z,22.72
2023-04-26T13:26:14.948Z,22.70
2023-04-26T13:28:41.962Z,22.77
2023-04-26T13:31:08.987Z,22.93
2023-04-26T13:33:36.063Z,22.74
2023-04-26T13:36:02.890Z,22.88
2023-04-26T13:38:32.839Z,22.76
2023-04-26T13:41:02.803Z,22.78
2023-04-26T13:43:29.596Z,22.75
2023-04-26T13:45:56.874Z,22.69
2023-04-26T13:48:26.720Z,22.47
2023-04-26T13:50:53.635Z,22.61
2023-04-26T13:53:20.538Z,22.64
2023-04-26T13:55:47.193Z,22.76
2023-04-26T13:58:14.327Z,22.92
2023-04-26T14:00:41.947Z,22.97
2023-04-26T14:03:11.568Z,23.07
2023-04-26T14:05:38.594Z,22.98
2023-04-26T14:08:06.028Z,22.97
2023-04-26T14:10:35.760Z,23.13
2023-04-26T14:13:02.501Z,23.11
2023-04-26T14:15:29.277Z,23.10
2023-04-26T14:17:59.049Z,23.20
2023-04-26T14:20:25.917Z,23.26
2023-04-26T14:22:52.652Z,23.21
2023-04-26T14:25:19.506Z,23.15
2023-04-26T14:27:49.113Z,23.16
2023-04-26T14:30:16.641Z,23.15
2023-04-26T14:32:43.545Z,23.15
2023-04-26T14:35:10.591Z,23.33
2023-04-26T14:37:37.829Z,23.20
2023-04-26T14:40:06.416Z,23.19
2023-04-26T14:42:33.192Z,23.17
2023-04-26T14:45:00.555Z,23.06
2023-04-26T14:47:27.475Z,23.00
2023-04-26T14:49:54.308Z,23.21
2023-04-26T14:52:21.599Z,23.10
2023-04-26T14:54:48.359Z,22.86
2023-04-26T14:57:15.132Z,22.93
2023-04-26T14:59:42.321Z,22.68
2023-04-26T15:02:09.164Z,22.79
2023-04-26T15:04:38.126Z,22.71
2023-04-26T15:07:05.231Z,22.56
2023-04-26T15:09:33.328Z,22.49
2023-04-26T15:12:00.263Z,22.52
2023-04-26T15:14:27.210Z,22.55
2023-04-26T15:16:54.646Z,22.47
2023-04-26T15:19:21.938Z,22.42
2023-04-26T15:21:49.358Z,22.45
2023-04-26T15:24:16.327Z,22.47
2023-04-26T15:26:43.051Z,22.54
2023-04-26T15:29:09.783Z,22.52
2023-04-26T15:31:37.050Z,22.53
2023-04-26T15:34:03.902Z,22.64
2023-04-26T15:36:30.761Z,22.82
2023-04-26T15:38:57.680Z,22.63
2023-04-26T15:41:24.429Z,22.72
2023-04-26T15:43:57.045Z,22.79
2023-04-26T15:46:23.832Z,22.72
2023-04-26T15:48:50.570Z,22.71
2023-04-26T15:51:17.431Z,22.41
2023-04-26T15:53:44.266Z,22.54
2023-04-26T15:56:15.569Z,22.42
2023-04-26T15:58:47.758Z,22.47
2023-04-26T16:01:15.247Z,22.46
2023-04-26T16:03:45.574Z,22.45
2023-04-26T16:06:14.132Z,22.31
2023-04-26T16:08:41.136Z,22.32
2023-04-26T16:11:08.030Z,22.25
2023-04-26T16:13:34.888Z,22.24
2023-04-26T16:16:01.732Z,22.47
2023-04-26T16:18:28.549Z,22.64
2023-04-26T16:21:07.351Z,22.74
2023-04-26T16:23:34.217Z,23.01
2023-04-26T16:26:01.515Z,22.96
2023-04-26T16:28:28.386Z,23.04
2023-04-26T16:30:55.914Z,22.94
2023-04-26T16:33:23.388Z,23.08
2023-04-26T16:35:57.368Z,23.04
2023-04-26T16:38:24.248Z,23.16
2023-04-26T16:40:57.658Z,23.27
2023-04-26T16:43:31.999Z,23.06
2023-04-26T16:46:06.993Z,22.93
2023-04-26T16:48:35.506Z,22.64
2023-04-26T16:51:07.171Z,22.87
2023-04-26T16:53:35.296Z,22.52
2023-04-26T16:56:03.090Z,22.65
2023-04-26T16:58:30.057Z,22.66
2023-04-26T17:00:56.856Z,22.56
2023-04-26T17:03:24.735Z,22.65
2023-04-26T17:05:51.930Z,22.64
2023-04-26T17:08:19.890Z,22.68
2023-04-26T17:10:47.211Z,22.66
2023-04-26T17:13:14.915Z,22.53
2023-04-26T17:15:42.657Z,22.57
2023-04-26T17:18:10.147Z,22.60
2023-04-26T17:20:37.307Z,22.63
2023-04-26T17:23:04.419Z,22.57
2023-04-26T17:25:31.314Z,22.66
2023-04-26T17:27:58.396Z,22.65
2023-04-26T17:30:25.275Z,22.59
2023-04-26T17:32:52.078Z,22.60
2023-04-26T17:35:18.913Z,22.58
2023-04-26T17:37:50.427Z,22.58
2023-04-26T17:40:18.659Z,22.55
2023-04-26T17:42:46.524Z,22.54
2023-04-26T17:45:14.496Z,22.48
2023-04-26T17:47:42.918Z,22.46
2023-04-26T17:50:10.073Z,22.47
2023-04-26T17:52:37.519Z,22.42
2023-04-26T17:55:06.588Z,22.36
2023-04-26T17:57:33.304Z,22.37
2023-04-26T17:59:59.990Z,22.38
2023-04-26T18:02:26.934Z,22.32
2023-04-26T18:04:55.085Z,22.33
2023-04-26T18:07:21.992Z,22.24
2023-04-26T18:09:49.938Z,22.21
2023-04-26T18:12:16.677Z,22.18
2023-04-26T18:14:46.203Z,22.12
2023-04-26T18:17:13.966Z,22.09
2023-04-26T18:19:41.938Z,22.05
2023-04-26T18:22:08.824Z,22.02
2023-04-26T18:24:35.676Z,21.89
2023-04-26T18:27:02.759Z,21.90
2023-04-26T18:29:30.485Z,21.73
2023-04-26T18:31:57.386Z,21.74
2023-04-26T18:34:24.519Z,21.53
2023-04-26T18:36:51.489Z,21.18
2023-04-26T18:39:18.388Z,21.00
2023-04-26T18:41:45.442Z,20.90
2023-04-26T18:44:14.987Z,20.79
2023-04-26T18:46:43.147Z,20.79
2023-04-26T18:49:10.135Z,20.86
2023-04-26T18:51:39.808Z,20.90
2023-04-26T18:54:06.548Z,20.74
2023-04-26T18:56:33.303Z,20.64
2023-04-26T18:59:00.049Z,20.67
2023-04-26T19:01:29.182Z,20.63
2023-04-26T19:03:56.225Z,20.62
2023-04-26T19:06:22.997Z,20.51
2023-04-26T19:08:49.749Z,20.38
2023-04-26T19:11:16.587Z,20.38
2023-04-26T19:13:43.429Z,20.27
2023-04-26T19:16:11.368Z,20.16
2023-04-26T19:18:40.472Z,19.93
2023-04-26T19:21:08.180Z,20.02
2023-04-26T19:23:35.827Z,19.96
2023-04-26T19:26:12.355Z,19.99
2023-04-26T19:28:39.305Z,19.86
2023-04-26T19:31:06.389Z,19.81
2023-04-26T19:33:34.807Z,19.78
2023-04-26T19:36:01.601Z,19.84
2023-04-26T19:38:28.830Z,19.77
2023-04-26T19:40:55.745Z,19.78
2023-04-26T19:43:22.611Z,19.77
2023-04-26T19:45:49.464Z,19.79
2023-04-26T19:48:16.299Z,19.80
2023-04-26T19:50:47.614Z,19.83
2023-04-26T19:53:19.126Z,19.89
2023-04-26T19:55:46.081Z,19.93
2023-04-26T19:58:12.915Z,19.94
2023-04-26T20:00:40.557Z,19.94
2023-04-26T20:03:07.761Z,19.91
2023-04-26T20:05:34.895Z,19.87
2023-04-26T20:08:02.010Z,19.90
2023-04-26T20:10:32.467Z,19.91
2023-04-26T20:13:00.694Z,19.92
2023-04-26T20:15:27.977Z,19.93
2023-04-26T20:17:55.159Z,19.95
2023-04-26T20:20:22.151Z,19.97
2023-04-26T20:22:48.983Z,19.96
2023-04-26T20:25:15.937Z,19.98
2023-04-26T20:27:42.842Z,19.96
2023-04-26T20:30:10.104Z,19.98
2023-04-26T20:32:36.939Z,19.97
2023-04-26T20:35:04.811Z,19.88
2023-04-26T20:37:31.950Z,19.83
2023-04-26T20:39:58.814Z,19.81
2023-04-26T20:42:25.941Z,19.78
2023-04-26T20:44:52.763Z,19.81
2023-04-26T20:47:19.538Z,19.67
2023-04-26T20:49:46.315Z,19.75
2023-04-26T20:52:13.129Z,19.74
2023-04-26T20:54:40.044Z,19.76
2023-04-26T20:57:06.948Z,19.78
2023-04-26T20:59:33.773Z,19.78
2023-04-26T21:02:01.389Z,19.77
2023-04-26T21:04:28.668Z,19.74
2023-04-26T21:06:55.640Z,19.71
2023-04-26T21:09:22.484Z,19.72
2023-04-26T21:11:52.452Z,19.74
2023-04-26T21:14:19.185Z,19.76
2023-04-26T21:16:48.105Z,19.77
2023-04-26T21:19:14.931Z,19.80
2023-04-26T21:21:41.746Z,19.82
2023-04-26T21:24:08.673Z,19.85
2023-04-26T21:26:35.724Z,19.84
2023-04-26T21:29:02.501Z,19.85
2023-04-26T21:31:29.476Z,19.86
2023-04-26T21:33:56.483Z,19.84
2023-04-26T21:36:23.193Z,19.83
2023-04-26T21:38:52.678Z,19.85
2023-04-26T21:41:19.905Z,19.85
2023-04-26T21:43:46.694Z,19.85
2023-04-26T21:46:13.594Z,19.84
2023-04-26T21:48:40.476Z,19.84
2023-04-26T21:51:09.876Z,19.84
2023-04-26T21:53:36.626Z,19.83
2023-04-26T21:56:05.709Z,19.82
2023-04-26T21:58:32.552Z,19.81
2023-04-26T22:01:15.264Z,19.79
2023-04-26T22:03:42.700Z,19.75
2023-04-26T22:06:10.140Z,19.76
2023-04-26T22:08:37.022Z,19.76
2023-04-26T22:11:03.883Z,19.77
2023-04-26T22:13:31.456Z,19.74
2023-04-26T22:16:01.108Z,19.76
2023-04-26T22:18:32.484Z,19.74
2023-04-26T22:20:59.199Z,19.69
2023-04-26T22:23:25.958Z,19.69
2023-04-26T22:25:53.857Z,19.67
2023-04-26T22:28:20.856Z,19.70
2023-04-26T22:30:48.387Z,19.65
2023-04-26T22:33:15.214Z,19.61
2023-04-26T22:35:42.085Z,19.59
2023-04-26T22:38:09.981Z,19.55
2023-04-26T22:40:37.234Z,19.57
2023-04-26T22:43:04.026Z,19.59
2023-04-26T22:45:30.992Z,19.62
2023-04-26T22:47:57.822Z,19.59
2023-04-26T22:50:24.909Z,19.59
2023-04-26T22:52:51.652Z,19.62
2023-04-26T22:55:18.670Z,19.63
2023-04-26T22:57:46.674Z,19.62
2023-04-26T23:00:16.969Z,19.57
2023-04-26T23:02:44.000Z,19.55
2023-04-26T23:05:13.775Z,19.54
2023-04-26T23:07:40.741Z,19.50
2023-04-26T23:10:11.103Z,19.47
2023-04-26T23:12:38.253Z,19.47
2023-04-26T23:15:06.088Z,19.46
2023-04-26T23:17:34.178Z,19.44
2023-04-26T23:20:01.357Z,19.44
2023-04-26T23:22:28.306Z,19.42
2023-04-26T23:24:55.514Z,19.44
2023-04-26T23:27:24.369Z,19.42
2023-04-26T23:29:51.729Z,19.37
2023-04-26T23:32:20.625Z,19.36
2023-04-26T23:34:47.469Z,19.34
2023-04-26T23:37:14.339Z,19.35
2023-04-26T23:39:41.102Z,19.31
2023-04-26T23:42:07.938Z,19.29
2023-04-26T23:44:34.688Z,19.28
2023-04-26T23:47:01.654Z,19.25
2023-04-26T23:49:28.562Z,19.11
2023-04-26T23:51:55.467Z,19.17
2023-04-26T23:54:22.335Z,19.15
2023-04-26T23:56:49.062Z,19.16
2023-04-26T23:59:16.863Z,19.17
